Time;durP1;ratioP1;P1;durP2;ratioP2;P2;SDS_P1;SDS_P2;PMS_P1;PMS_P2;Temp;Humidity;BMP_temperature;BMP_pressure;BME280_temperature;BME280_humidity;BME280_pressure;Samples;Min_cycle;Max_cycle;Signal;HPM_P1;HPM_P2
2023/05/09 00:00:15;;;;;;;74.90;38.60;;;15.70;99.90;;;;;;5051060;28;20451;-64
2023/05/09 00:02:44;;;;;;;75.28;39.50;;;15.70;99.90;;;;;;5028146;28;20049;-64
2023/05/09 00:05:10;;;;;;;78.43;40.30;;;15.70;99.90;;;;;;5045084;28;20129;-64
2023/05/09 00:07:36;;;;;;;78.00;39.85;;;15.60;99.90;;;;;;5047307;28;20414;-64
2023/05/09 00:10:02;;;;;;;74.30;39.28;;;15.60;99.90;;;;;;5032158;28;20032;-64
2023/05/09 00:12:28;;;;;;;77.20;38.97;;;15.60;99.90;;;;;;5050746;28;20033;-64
2023/05/09 00:14:55;;;;;;;68.43;37.17;;;15.60;99.90;;;;;;5045195;28;20412;-64
2023/05/09 00:17:22;;;;;;;72.15;38.13;;;15.70;99.90;;;;;;5049872;28;20508;-64
2023/05/09 00:19:49;;;;;;;76.72;38.58;;;15.70;99.90;;;;;;5050067;28;20037;-64
2023/05/09 00:22:16;;;;;;;77.88;38.15;;;15.60;99.90;;;;;;5032879;28;20055;-64
2023/05/09 00:24:42;;;;;;;71.25;37.58;;;15.60;99.90;;;;;;5031356;28;20159;-64
2023/05/09 00:27:08;;;;;;;71.90;37.92;;;15.60;99.90;;;;;;5050421;28;20128;-66
2023/05/09 00:29:34;;;;;;;68.65;35.65;;;15.60;99.90;;;;;;5050309;28;20047;-64
2023/05/09 00:32:00;;;;;;;72.82;37.15;;;15.60;99.90;;;;;;5050701;28;20041;-65
2023/05/09 00:34:27;;;;;;;72.20;36.38;;;15.60;99.90;;;;;;5050176;28;20076;-63
2023/05/09 00:36:52;;;;;;;67.05;34.97;;;15.60;99.90;;;;;;5028332;28;20470;-64
2023/05/09 00:39:18;;;;;;;66.80;36.25;;;15.60;99.90;;;;;;5032223;28;20121;-63
2023/05/09 00:41:43;;;;;;;73.18;36.88;;;15.60;99.90;;;;;;5049966;28;20025;-63
2023/05/09 00:44:09;;;;;;;67.30;36.88;;;15.60;99.90;;;;;;5032553;28;20052;-63
2023/05/09 00:46:34;;;;;;;67.20;36.08;;;15.60;99.90;;;;;;5048423;28;20079;-64
2023/05/09 00:49:00;;;;;;;66.38;36.03;;;15.60;99.90;;;;;;5028956;28;20036;-63
2023/05/09 00:51:27;;;;;;;65.72;35.10;;;15.60;99.90;;;;;;5043781;28;20395;-63
2023/05/09 00:53:53;;;;;;;68.70;36.17;;;15.60;99.90;;;;;;5048428;28;20049;-63
2023/05/09 00:56:19;;;;;;;70.57;37.10;;;15.50;99.90;;;;;;5045003;28;20511;-64
2023/05/09 00:58:44;;;;;;;74.80;37.90;;;15.50;99.90;;;;;;5032187;28;20040;-63
2023/05/09 01:01:10;;;;;;;71.70;36.80;;;15.50;99.90;;;;;;5056487;28;20049;-63
2023/05/09 01:03:38;;;;;;;67.65;35.38;;;15.50;99.90;;;;;;5042877;28;20076;-63
2023/05/09 01:06:09;;;;;;;70.45;36.58;;;15.50;99.90;;;;;;5045838;28;20029;-63
2023/05/09 01:08:54;;;;;;;71.60;35.70;;;15.50;99.90;;;;;;5025141;28;20506;-63
2023/05/09 01:11:35;;;;;;;70.50;36.17;;;15.40;99.90;;;;;;5032182;28;20056;-62
2023/05/09 01:14:06;;;;;;;72.28;36.55;;;15.40;99.90;;;;;;5031809;28;20037;-63
2023/05/09 01:16:44;;;;;;;67.68;36.33;;;15.40;99.90;;;;;;5031712;28;20080;-63
2023/05/09 01:19:51;;;;;;;72.85;37.58;;;15.40;99.90;;;;;;5040395;28;20051;-63
2023/05/09 01:22:18;;;;;;;70.22;35.17;;;15.30;99.90;;;;;;5031460;28;20102;-64
2023/05/09 01:25:05;;;;;;;69.95;35.03;;;15.30;99.90;;;;;;5049149;28;20080;-63
2023/05/09 01:27:56;;;;;;;69.55;35.78;;;15.30;99.90;;;;;;5031494;28;20084;-63
2023/05/09 01:30:25;;;;;;;69.35;35.22;;;15.20;99.90;;;;;;5026481;28;20128;-64
2023/05/09 01:32:56;;;;;;;70.30;34.47;;;15.20;99.90;;;;;;5048371;28;20025;-63
2023/05/09 01:35:25;;;;;;;67.57;34.13;;;15.20;99.90;;;;;;5053516;28;20045;-64
2023/05/09 01:37:53;;;;;;;68.20;34.22;;;15.20;99.90;;;;;;5048048;28;20037;-64
2023/05/09 01:40:20;;;;;;;70.25;33.88;;;15.20;99.90;;;;;;5053629;28;20106;-63
2023/05/09 01:42:57;;;;;;;62.17;32.42;;;15.10;99.90;;;;;;5049816;28;20047;-63
2023/05/09 01:45:25;;;;;;;61.55;34.08;;;15.10;99.90;;;;;;5061854;28;20045;-64
2023/05/09 01:47:52;;;;;;;62.88;33.58;;;15.10;99.90;;;;;;5029383;28;20088;-66
2023/05/09 01:50:20;;;;;;;66.57;32.75;;;15.10;99.90;;;;;;5034137;28;20391;-63
2023/05/09 01:52:49;;;;;;;67.88;35.45;;;15.00;99.90;;;;;;5035476;28;20442;-63
2023/05/09 01:55:18;;;;;;;66.32;32.30;;;15.00;99.90;;;;;;5046835;28;20445;-63
2023/05/09 01:57:45;;;;;;;62.53;33.05;;;15.00;99.90;;;;;;5029019;28;20053;-63
2023/05/09 02:00:13;;;;;;;62.53;32.30;;;15.00;99.90;;;;;;5048510;28;20033;-63
2023/05/09 02:02:39;;;;;;;57.05;31.35;;;14.90;99.90;;;;;;5052931;28;20033;-63
2023/05/09 02:05:07;;;;;;;57.85;30.52;;;14.90;99.90;;;;;;5029787;28;20045;-63
2023/05/09 02:07:33;;;;;;;55.35;30.17;;;14.90;99.90;;;;;;5053189;28;20127;-64
2023/05/09 02:10:01;;;;;;;55.85;30.10;;;14.80;99.90;;;;;;5035116;28;20112;-65
2023/05/09 02:12:26;;;;;;;54.67;30.02;;;14.80;99.90;;;;;;5053125;28;20425;-63
2023/05/09 02:14:52;;;;;;;62.70;32.92;;;14.90;99.90;;;;;;5052625;28;20036;-63
2023/05/09 02:17:18;;;;;;;67.40;33.22;;;14.80;99.90;;;;;;5052824;28;20040;-64
2023/05/09 02:19:43;;;;;;;57.42;30.63;;;14.80;99.90;;;;;;5049661;28;20033;-65
2023/05/09 02:22:11;;;;;;;59.75;31.10;;;14.80;99.90;;;;;;5048893;28;20037;-63
2023/05/09 02:24:37;;;;;;;56.38;30.23;;;14.80;99.90;;;;;;5052530;28;20511;-63
2023/05/09 02:27:04;;;;;;;54.65;30.83;;;14.80;99.90;;;;;;5052346;28;20113;-63
2023/05/09 02:29:51;;;;;;;56.78;31.58;;;14.80;99.90;;;;;;5035094;28;20722;-63
2023/05/09 02:32:23;;;;;;;62.92;31.63;;;14.80;99.90;;;;;;5047187;28;20490;-63
2023/05/09 02:34:51;;;;;;;61.47;30.88;;;14.80;99.90;;;;;;5051735;28;20394;-64
2023/05/09 02:37:17;;;;;;;61.30;32.88;;;14.80;99.90;;;;;;5046527;28;20495;-64
2023/05/09 02:39:43;;;;;;;61.30;31.88;;;14.70;99.90;;;;;;5052259;28;20080;-63
2023/05/09 02:42:10;;;;;;;60.65;32.33;;;14.80;99.90;;;;;;5048526;28;20088;-64
2023/05/09 02:44:37;;;;;;;65.05;31.73;;;14.70;99.90;;;;;;5043698;28;20095;-64
2023/05/09 02:47:06;;;;;;;61.20;29.88;;;14.70;99.90;;;;;;5034797;28;20094;-63
2023/05/09 02:49:32;;;;;;;54.13;29.42;;;14.70;99.90;;;;;;5038166;28;20045;-64
2023/05/09 02:51:58;;;;;;;51.28;28.42;;;14.70;99.90;;;;;;5046035;28;20083;-63
2023/05/09 02:54:23;;;;;;;51.20;26.67;;;14.70;99.90;;;;;;5026864;28;20041;-63
2023/05/09 02:56:49;;;;;;;45.50;26.15;;;14.70;99.90;;;;;;5050640;28;20052;-63
2023/05/09 02:59:15;;;;;;;51.85;28.60;;;14.70;99.90;;;;;;5047511;28;20507;-66
2023/05/09 03:01:41;;;;;;;54.50;31.05;;;14.70;99.90;;;;;;5048870;28;20115;-63
2023/05/09 03:04:06;;;;;;;55.17;29.80;;;14.70;99.90;;;;;;5052136;28;20171;-66
2023/05/09 03:06:32;;;;;;;54.53;29.98;;;14.70;99.90;;;;;;5033568;28;20116;-63
2023/05/09 03:08:58;;;;;;;59.33;32.38;;;14.70;99.90;;;;;;5051937;28;20045;-63
2023/05/09 03:11:23;;;;;;;69.95;33.97;;;14.70;99.90;;;;;;5052452;28;20037;-63
2023/05/09 03:13:49;;;;;;;73.03;36.15;;;14.70;99.90;;;;;;5046551;28;20037;-65
2023/05/09 03:16:17;;;;;;;77.82;37.55;;;14.70;99.90;;;;;;5051513;28;20087;-63
2023/05/09 03:18:42;;;;;;;82.13;41.38;;;14.70;99.90;;;;;;5051929;28;20438;-63
2023/05/09 03:21:08;;;;;;;79.80;38.85;;;14.70;99.90;;;;;;5051650;28;20041;-63
2023/05/09 03:23:34;;;;;;;79.47;37.55;;;14.80;99.90;;;;;;5050688;28;20487;-63
2023/05/09 03:26:00;;;;;;;80.13;38.88;;;14.80;99.90;;;;;;5043703;28;20557;-64
2023/05/09 03:28:27;;;;;;;80.18;38.83;;;14.80;99.90;;;;;;5051830;28;20479;-64
2023/05/09 03:30:52;;;;;;;81.80;39.63;;;14.80;99.90;;;;;;5033379;28;20084;-63
2023/05/09 03:33:18;;;;;;;86.30;39.75;;;14.80;99.90;;;;;;5051629;28;20079;-64
2023/05/09 03:35:43;;;;;;;95.18;42.50;;;14.80;99.90;;;;;;5050246;28;20033;-63
2023/05/09 03:38:09;;;;;;;97.28;41.88;;;14.80;99.90;;;;;;5043646;28;20061;-63
2023/05/09 03:40:34;;;;;;;99.10;44.17;;;14.80;99.90;;;;;;5033694;28;20402;-64
2023/05/09 03:43:03;;;;;;;108.60;46.42;;;14.80;99.90;;;;;;5050793;28;20430;-64
2023/05/09 03:45:29;;;;;;;114.97;49.00;;;14.80;99.90;;;;;;5033220;28;20109;-63
2023/05/09 03:47:54;;;;;;;106.15;47.70;;;14.80;99.90;;;;;;5056403;28;20041;-63
2023/05/09 03:50:20;;;;;;;111.28;48.88;;;14.80;99.90;;;;;;5051221;28;20045;-66
2023/05/09 03:52:46;;;;;;;108.47;48.05;;;14.80;99.90;;;;;;5033938;28;20037;-63
2023/05/09 03:55:11;;;;;;;113.07;48.95;;;14.90;99.90;;;;;;5039376;28;20501;-63
2023/05/09 03:57:37;;;;;;;109.90;48.22;;;14.80;99.90;;;;;;5031504;28;20053;-63
2023/05/09 04:00:05;;;;;;;111.40;50.17;;;14.80;99.90;;;;;;5051174;28;20102;-63
2023/05/09 04:02:32;;;;;;;106.18;49.15;;;14.90;99.90;;;;;;5028960;28;20778;-62
2023/05/09 04:04:58;;;;;;;101.75;47.45;;;14.90;99.90;;;;;;5046738;28;20044;-63
2023/05/09 04:07:23;;;;;;;97.63;47.60;;;14.80;99.90;;;;;;5031723;28;20029;-63
2023/05/09 04:09:49;;;;;;;95.72;46.72;;;14.90;99.90;;;;;;5048445;28;20132;-65
2023/05/09 04:12:14;;;;;;;93.90;46.60;;;14.80;99.90;;;;;;5053160;28;20506;-63
2023/05/09 04:14:40;;;;;;;98.93;47.28;;;14.90;99.90;;;;;;5030333;28;20318;-63
2023/05/09 04:17:06;;;;;;;90.38;47.13;;;14.90;99.90;;;;;;5047516;28;20036;-63
2023/05/09 04:19:31;;;;;;;96.47;47.28;;;14.90;99.90;;;;;;5050382;28;20063;-63
2023/05/09 04:21:57;;;;;;;93.80;46.35;;;14.90;99.90;;;;;;5050384;28;20090;-63
2023/05/09 04:24:22;;;;;;;86.45;45.83;;;14.90;99.90;;;;;;5032441;28;20320;-62
2023/05/09 04:26:48;;;;;;;102.40;47.67;;;14.90;99.90;;;;;;5050332;28;20037;-63
2023/05/09 04:29:14;;;;;;;91.63;46.13;;;14.90;99.90;;;;;;5032462;28;20041;-63
2023/05/09 04:31:39;;;;;;;91.60;45.92;;;15.00;99.90;;;;;;5046717;28;20479;-64
2023/05/09 04:34:05;;;;;;;94.80;45.58;;;14.90;99.90;;;;;;5031671;28;20334;-63
2023/05/09 04:36:32;;;;;;;88.22;44.78;;;15.00;99.90;;;;;;5032468;28;20044;-63
2023/05/09 04:38:58;;;;;;;91.25;46.58;;;15.00;99.90;;;;;;5032100;28;20501;-63
2023/05/09 04:41:23;;;;;;;106.22;47.15;;;15.00;99.90;;;;;;5050379;28;20037;-63
2023/05/09 04:43:49;;;;;;;91.68;46.22;;;15.00;99.90;;;;;;5051343;28;20048;-63
2023/05/09 04:46:15;;;;;;;95.43;46.70;;;15.00;99.90;;;;;;5048546;28;20076;-63
2023/05/09 04:48:40;;;;;;;93.35;46.47;;;15.00;99.90;;;;;;5036285;28;20049;-63
2023/05/09 04:51:06;;;;;;;92.28;45.33;;;15.10;99.90;;;;;;5035383;28;20453;-65
2023/05/09 04:53:33;;;;;;;90.80;46.92;;;15.10;99.90;;;;;;5028118;28;20056;-64
2023/05/09 04:55:58;;;;;;;93.05;47.25;;;15.00;99.90;;;;;;5023320;28;20065;-64
2023/05/09 04:58:25;;;;;;;88.47;44.35;;;15.00;99.90;;;;;;5050045;28;20071;-62
2023/05/09 05:00:51;;;;;;;93.43;46.63;;;15.10;99.90;;;;;;5045276;28;20036;-63
2023/05/09 05:03:17;;;;;;;96.13;47.38;;;15.10;99.90;;;;;;5047029;28;20040;-63
2023/05/09 05:05:42;;;;;;;91.90;47.35;;;15.10;99.90;;;;;;5049234;28;20029;-65
2023/05/09 05:08:08;;;;;;;86.07;46.22;;;15.10;99.90;;;;;;5049243;28;20037;-63
2023/05/09 05:10:34;;;;;;;91.57;46.75;;;15.10;99.90;;;;;;5049893;28;20087;-62
2023/05/09 05:13:00;;;;;;;90.13;47.30;;;15.10;99.90;;;;;;5050112;28;20044;-63
2023/05/09 05:15:25;;;;;;;90.43;47.30;;;15.20;99.90;;;;;;5021425;28;20029;-64
2023/05/09 05:17:51;;;;;;;92.07;47.67;;;15.20;99.90;;;;;;5041693;28;20041;-64
2023/05/09 05:20:17;;;;;;;100.72;48.38;;;15.20;99.90;;;;;;5027746;28;20040;-65
2023/05/09 05:22:43;;;;;;;96.60;47.00;;;15.20;99.90;;;;;;5027281;28;20049;-64
2023/05/09 05:25:08;;;;;;;94.18;48.17;;;15.20;99.90;;;;;;5049610;28;20064;-63
2023/05/09 05:27:34;;;;;;;85.03;45.40;;;15.20;99.90;;;;;;5024842;28;20116;-63
2023/05/09 05:30:00;;;;;;;93.28;46.58;;;15.30;99.90;;;;;;5043585;28;20041;-64
2023/05/09 05:32:25;;;;;;;87.82;45.88;;;15.30;99.90;;;;;;5025666;28;20040;-66
2023/05/09 05:34:51;;;;;;;82.38;46.05;;;15.30;99.90;;;;;;5042685;28;20036;-63
2023/05/09 05:37:16;;;;;;;90.88;48.92;;;15.40;99.90;;;;;;5029317;28;20102;-63
2023/05/09 05:39:42;;;;;;;89.18;46.78;;;15.40;99.90;;;;;;5043248;28;20040;-64
2023/05/09 05:42:08;;;;;;;91.80;47.97;;;15.40;99.90;;;;;;5027922;28;20037;-66
2023/05/09 05:44:33;;;;;;;88.20;46.63;;;15.40;99.90;;;;;;5044114;28;20044;-63
2023/05/09 05:46:59;;;;;;;92.28;48.63;;;15.40;99.90;;;;;;5048837;28;20116;-64
2023/05/09 05:49:24;;;;;;;96.10;49.05;;;15.50;99.90;;;;;;5025307;28;20393;-64
2023/05/09 05:51:50;;;;;;;100.18;51.35;;;15.50;99.90;;;;;;5037351;28;20044;-65
2023/05/09 05:54:16;;;;;;;98.03;49.85;;;15.50;99.90;;;;;;5042752;28;20138;-63
2023/05/09 05:56:42;;;;;;;95.65;49.00;;;15.50;99.90;;;;;;5020067;28;20048;-64
2023/05/09 05:59:07;;;;;;;98.93;49.42;;;15.50;99.90;;;;;;5046385;28;20060;-63
2023/05/09 06:01:33;;;;;;;95.07;50.60;;;15.50;99.90;;;;;;5020155;28;20129;-63
2023/05/09 06:03:58;;;;;;;100.78;51.58;;;15.50;99.90;;;;;;5048714;28;20112;-64
2023/05/09 06:06:25;;;;;;;100.93;50.03;;;15.60;99.90;;;;;;5046218;28;20091;-63
2023/05/09 06:08:51;;;;;;;90.70;48.08;;;15.60;99.90;;;;;;5041551;28;20056;-64
2023/05/09 06:11:17;;;;;;;90.55;49.03;;;15.60;99.90;;;;;;5031415;28;20045;-64
2023/05/09 06:13:43;;;;;;;100.32;51.45;;;15.60;99.90;;;;;;5050040;28;20509;-64
2023/05/09 06:16:09;;;;;;;91.82;47.80;;;15.70;99.90;;;;;;5030823;28;20108;-64
2023/05/09 06:18:36;;;;;;;87.60;47.70;;;15.70;99.90;;;;;;5053214;28;20044;-66
2023/05/09 06:21:03;;;;;;;96.22;48.17;;;15.70;99.90;;;;;;5052231;28;20075;-63
2023/05/09 06:23:28;;;;;;;86.78;47.17;;;15.70;99.90;;;;;;5035057;28;20048;-63
2023/05/09 06:25:54;;;;;;;90.10;47.22;;;15.70;99.90;;;;;;5021388;28;20032;-66
2023/05/09 06:28:20;;;;;;;84.78;45.38;;;15.80;99.90;;;;;;5028073;28;20041;-63
2023/05/09 06:30:45;;;;;;;92.53;47.63;;;15.80;99.90;;;;;;5039293;28;20048;-64
2023/05/09 06:33:11;;;;;;;96.93;48.35;;;15.80;99.90;;;;;;5037760;28;20067;-63
2023/05/09 06:35:36;;;;;;;89.88;46.85;;;15.80;99.90;;;;;;5037848;28;20040;-64
2023/05/09 06:38:02;;;;;;;92.18;47.92;;;15.80;99.90;;;;;;5020331;28;20053;-64
2023/05/09 06:40:27;;;;;;;94.57;48.25;;;15.70;99.90;;;;;;5038676;28;20045;-63
2023/05/09 06:42:53;;;;;;;96.18;48.85;;;15.80;99.90;;;;;;5051365;28;20052;-64
2023/05/09 06:45:18;;;;;;;94.53;47.20;;;15.70;99.90;;;;;;5026314;28;20041;-63
2023/05/09 06:47:44;;;;;;;82.63;44.85;;;15.70;99.90;;;;;;5022540;28;20075;-65
2023/05/09 06:50:10;;;;;;;98.28;47.28;;;15.80;99.90;;;;;;5024772;28;20029;-63
2023/05/09 06:52:35;;;;;;;88.40;45.58;;;15.80;99.90;;;;;;5052142;28;20029;-65
2023/05/09 06:55:04;;;;;;;91.18;46.22;;;15.90;99.90;;;;;;5029925;28;20569;-64
2023/05/09 06:57:31;;;;;;;91.97;45.67;;;16.00;99.90;;;;;;5032133;28;20044;-63
2023/05/09 06:59:56;;;;;;;83.38;44.20;;;16.00;99.90;;;;;;5031126;28;20037;-64
2023/05/09 07:02:22;;;;;;;88.47;45.47;;;16.10;99.90;;;;;;5044919;28;20045;-65
2023/05/09 07:04:47;;;;;;;93.32;45.78;;;16.20;99.90;;;;;;5050344;28;20040;-65
2023/05/09 07:07:13;;;;;;;91.72;44.95;;;16.20;99.90;;;;;;5024921;28;20044;-63
2023/05/09 07:09:38;;;;;;;88.25;45.88;;;16.20;99.90;;;;;;5023030;28;20041;-65
2023/05/09 07:12:04;;;;;;;83.18;41.92;;;16.20;99.90;;;;;;5029577;28;20124;-65
2023/05/09 07:14:30;;;;;;;82.93;42.30;;;16.20;99.90;;;;;;5033135;28;20056;-66
2023/05/09 07:16:55;;;;;;;79.75;43.75;;;16.30;99.90;;;;;;5048842;28;20033;-65
2023/05/09 07:19:21;;;;;;;84.88;42.95;;;16.30;99.90;;;;;;5049430;28;20036;-63
2023/05/09 07:21:46;;;;;;;83.28;42.33;;;16.20;99.90;;;;;;5048092;28;20037;-65
2023/05/09 07:24:12;;;;;;;81.35;41.60;;;16.20;99.90;;;;;;5047075;28;20535;-65
2023/05/09 07:26:37;;;;;;;81.13;41.75;;;16.20;99.90;;;;;;5030277;28;20445;-65
2023/05/09 07:29:03;;;;;;;78.68;41.25;;;16.20;99.90;;;;;;5048190;28;20057;-62
2023/05/09 07:31:29;;;;;;;76.25;42.38;;;16.20;99.90;;;;;;5030143;28;20051;-65
2023/05/09 07:33:54;;;;;;;73.03;40.28;;;16.20;99.90;;;;;;5026060;28;20033;-65
2023/05/09 07:36:20;;;;;;;71.60;39.90;;;16.30;99.90;;;;;;5022084;28;20087;-65
2023/05/09 07:38:51;;;;;;;78.50;40.90;;;16.30;99.90;;;;;;5047427;28;20068;-65
2023/05/09 07:41:17;;;;;;;74.13;40.17;;;16.30;99.90;;;;;;5037594;28;20040;-65
2023/05/09 07:43:42;;;;;;;71.57;40.92;;;16.30;99.90;;;;;;5040458;28;20040;-65
2023/05/09 07:46:08;;;;;;;68.07;39.72;;;16.30;99.90;;;;;;5043980;28;20038;-65
2023/05/09 07:48:33;;;;;;;67.45;38.90;;;16.40;99.90;;;;;;5048162;28;20048;-63
2023/05/09 07:50:59;;;;;;;66.75;38.33;;;16.40;99.90;;;;;;5024459;28;20106;-66
2023/05/09 07:53:25;;;;;;;69.15;39.05;;;16.30;99.90;;;;;;5045684;28;20099;-65
2023/05/09 07:55:51;;;;;;;66.95;37.08;;;16.30;99.90;;;;;;5032434;28;20040;-65
2023/05/09 07:58:16;;;;;;;70.18;39.28;;;16.30;99.90;;;;;;5050837;28;20122;-65
2023/05/09 08:00:42;;;;;;;66.10;37.50;;;16.30;99.90;;;;;;5034099;28;20071;-63
2023/05/09 08:03:07;;;;;;;59.80;36.55;;;16.40;99.90;;;;;;5031969;28;20045;-65
2023/05/09 08:05:33;;;;;;;68.18;36.28;;;16.40;99.90;;;;;;5050616;28;20449;-65
2023/05/09 08:07:59;;;;;;;67.03;35.35;;;16.50;99.90;;;;;;5049672;28;20041;-65
2023/05/09 08:10:25;;;;;;;55.33;35.05;;;16.60;99.90;;;;;;5032820;28;20090;-63
2023/05/09 08:12:51;;;;;;;56.17;33.92;;;16.70;99.90;;;;;;5027646;28;20506;-66
2023/05/09 08:15:17;;;;;;;56.63;33.10;;;16.70;99.90;;;;;;5043238;28;20060;-64
2023/05/09 08:17:43;;;;;;;53.72;31.73;;;16.80;99.90;;;;;;5035129;28;20040;-64
2023/05/09 08:20:10;;;;;;;55.08;33.53;;;16.90;99.90;;;;;;5050978;28;20037;-65
2023/05/09 08:22:40;;;;;;;48.25;30.48;;;16.90;99.90;;;;;;5051107;28;20043;-65
2023/05/09 08:25:07;;;;;;;53.70;32.67;;;17.00;99.90;;;;;;5031608;28;20094;-65
2023/05/09 08:27:32;;;;;;;50.00;30.52;;;17.00;99.90;;;;;;5050343;28;20072;-63
2023/05/09 08:29:58;;;;;;;47.95;29.02;;;17.00;99.90;;;;;;5024739;28;20491;-65
2023/05/09 08:32:23;;;;;;;48.42;29.60;;;17.00;99.90;;;;;;5050380;28;20410;-65
2023/05/09 08:34:49;;;;;;;43.83;28.60;;;17.00;99.90;;;;;;5032536;28;20041;-65
2023/05/09 08:37:15;;;;;;;46.60;27.92;;;17.00;99.90;;;;;;5032623;28;20556;-65
2023/05/09 08:39:40;;;;;;;45.90;28.38;;;16.90;99.90;;;;;;5045662;28;20614;-65
2023/05/09 08:42:08;;;;;;;44.17;27.13;;;16.90;99.90;;;;;;5032406;28;20048;-65
2023/05/09 08:44:33;;;;;;;44.10;27.98;;;16.80;99.90;;;;;;5015511;28;20410;-63
2023/05/09 08:47:00;;;;;;;39.20;24.70;;;16.90;99.90;;;;;;5048278;28;20033;-65
2023/05/09 08:49:27;;;;;;;42.58;26.77;;;16.90;99.90;;;;;;5036838;28;20072;-65
2023/05/09 08:51:53;;;;;;;46.80;27.13;;;16.90;99.90;;;;;;5032769;28;20194;-65
2023/05/09 08:54:19;;;;;;;42.25;26.92;;;16.90;99.90;;;;;;5048945;28;20033;-65
2023/05/09 08:56:45;;;;;;;39.85;25.38;;;16.90;99.90;;;;;;5031607;28;20047;-64
2023/05/09 08:59:12;;;;;;;41.95;25.05;;;17.00;99.90;;;;;;5046833;28;20399;-65
2023/05/09 09:01:39;;;;;;;39.85;25.20;;;17.00;99.90;;;;;;5047625;28;20099;-65
2023/05/09 09:04:06;;;;;;;35.20;22.48;;;17.00;99.90;;;;;;5051038;28;20372;-65
2023/05/09 09:06:33;;;;;;;34.00;21.77;;;17.10;99.90;;;;;;5022437;28;20073;-62
2023/05/09 09:09:00;;;;;;;34.10;22.23;;;17.20;99.90;;;;;;5049720;28;20037;-65
2023/05/09 09:11:27;;;;;;;34.92;22.48;;;17.20;99.90;;;;;;5046589;28;20118;-65
2023/05/09 09:13:54;;;;;;;31.40;21.00;;;17.30;99.90;;;;;;5047911;28;20041;-65
2023/05/09 09:16:21;;;;;;;30.88;21.77;;;17.40;99.90;;;;;;5033488;28;20076;-65
2023/05/09 09:18:50;;;;;;;30.70;21.08;;;17.40;99.90;;;;;;5049844;28;20041;-65
2023/05/09 09:21:18;;;;;;;31.38;20.63;;;17.50;99.90;;;;;;5049294;28;20327;-65
2023/05/09 09:23:46;;;;;;;30.80;20.65;;;17.60;99.90;;;;;;5049631;28;20033;-65
2023/05/09 09:26:12;;;;;;;38.75;20.98;;;17.70;99.90;;;;;;5043826;28;20044;-65
2023/05/09 09:28:38;;;;;;;29.75;20.08;;;17.70;99.90;;;;;;5046983;28;20033;-65
2023/05/09 09:31:22;;;;;;;29.10;20.10;;;17.90;99.90;;;;;;5032063;28;20083;-64
2023/05/09 09:33:49;;;;;;;25.65;18.77;;;17.90;99.90;;;;;;5032091;28;20045;-64
2023/05/09 09:36:15;;;;;;;27.38;18.17;;;18.00;99.90;;;;;;5049077;28;20048;-65
2023/05/09 09:38:44;;;;;;;28.23;19.27;;;18.10;99.90;;;;;;5049066;28;20033;-65
2023/05/09 09:41:11;;;;;;;29.08;19.48;;;18.10;99.90;;;;;;5049714;28;20032;-65
2023/05/09 09:43:37;;;;;;;29.08;20.45;;;18.10;99.90;;;;;;5031793;28;20052;-64
2023/05/09 09:46:03;;;;;;;27.45;19.02;;;18.20;99.90;;;;;;5049561;28;20521;-65
2023/05/09 09:48:34;;;;;;;24.30;18.05;;;18.20;99.90;;;;;;5049851;28;20041;-63
2023/05/09 09:51:11;;;;;;;25.55;18.08;;;18.20;99.90;;;;;;5041795;28;20522;-65
2023/05/09 09:53:41;;;;;;;26.65;18.73;;;18.30;99.90;;;;;;5026950;28;20041;-65
2023/05/09 09:56:07;;;;;;;27.98;18.58;;;18.30;99.90;;;;;;5032656;28;20048;-65
2023/05/09 09:58:33;;;;;;;28.85;18.98;;;18.40;99.90;;;;;;5053188;28;20041;-65
2023/05/09 10:01:07;;;;;;;24.13;18.25;;;18.40;99.90;;;;;;5052943;28;20063;-65
2023/05/09 10:03:40;;;;;;;29.35;19.55;;;18.40;99.90;;;;;;5034294;28;20049;-64
2023/05/09 10:06:24;;;;;;;25.95;18.23;;;18.50;99.90;;;;;;5030614;28;20120;-64
2023/05/09 10:08:50;;;;;;;23.80;18.05;;;18.60;99.90;;;;;;5052141;28;20049;-64
2023/05/09 10:11:15;;;;;;;27.42;18.35;;;18.70;99.90;;;;;;5053171;28;20039;-65
2023/05/09 10:13:42;;;;;;;23.20;16.73;;;18.80;99.90;;;;;;5057551;28;20095;-65
2023/05/09 10:16:08;;;;;;;23.73;16.60;;;18.80;99.90;;;;;;5052762;28;20047;-65
2023/05/09 10:18:34;;;;;;;22.65;16.17;;;18.90;99.90;;;;;;5034045;28;20060;-62
2023/05/09 10:21:02;;;;;;;21.48;16.10;;;18.80;99.90;;;;;;5034677;28;20427;-65
2023/05/09 10:23:33;;;;;;;22.48;16.60;;;18.90;99.90;;;;;;5053072;28;20047;-65
2023/05/09 10:26:20;;;;;;;22.77;15.57;;;18.90;99.90;;;;;;5052299;28;20128;-64
2023/05/09 10:28:48;;;;;;;21.17;15.00;;;19.30;99.90;;;;;;5052760;28;20077;-65
2023/05/09 10:31:24;;;;;;;20.70;15.52;;;19.10;99.90;;;;;;5034966;28;20383;-65
2023/05/09 10:33:50;;;;;;;20.33;14.95;;;18.80;99.90;;;;;;5033848;28;20049;-65
2023/05/09 10:36:19;;;;;;;18.20;13.65;;;18.70;99.90;;;;;;5034232;28;20127;-65
2023/05/09 10:38:46;;;;;;;18.65;13.82;;;18.60;99.90;;;;;;5052572;28;20045;-65
2023/05/09 10:41:13;;;;;;;19.40;14.35;;;18.50;99.90;;;;;;5033479;28;20040;-65
2023/05/09 10:43:39;;;;;;;19.95;14.77;;;18.40;99.90;;;;;;5043581;28;20304;-65
2023/05/09 10:46:05;;;;;;;20.38;15.18;;;18.40;99.90;;;;;;5033989;28;20036;-65
2023/05/09 10:48:32;;;;;;;22.13;15.52;;;18.40;99.90;;;;;;5028993;28;20168;-65
2023/05/09 10:51:00;;;;;;;21.20;14.98;;;18.30;99.90;;;;;;5043018;28;20424;-65
2023/05/09 10:53:39;;;;;;;19.00;14.45;;;18.40;99.90;;;;;;5052393;28;20029;-64
2023/05/09 10:56:05;;;;;;;16.95;13.60;;;18.50;99.90;;;;;;5019979;28;20041;-65
2023/05/09 10:58:34;;;;;;;18.00;13.50;;;18.70;99.90;;;;;;5034434;28;20037;-65
2023/05/09 11:01:02;;;;;;;19.85;15.43;;;18.70;99.90;;;;;;5046087;28;20490;-66
2023/05/09 11:03:48;;;;;;;20.05;14.95;;;18.90;99.90;;;;;;5051398;28;20033;-64
2023/05/09 11:06:44;;;;;;;21.83;15.85;;;19.20;99.90;;;;;;5031752;28;20037;-65
2023/05/09 11:09:33;;;;;;;25.83;15.48;;;19.10;99.90;;;;;;5039000;28;20053;-65
2023/05/09 11:12:13;;;;;;;20.23;14.93;;;19.10;99.90;;;;;;5030956;28;20048;-65
2023/05/09 11:14:47;;;;;;;20.75;15.32;;;19.10;99.90;;;;;;5059625;28;20033;-65
2023/05/09 11:17:13;;;;;;;19.48;15.65;;;19.10;99.90;;;;;;5051823;28;20037;-65
2023/05/09 11:19:44;;;;;;;20.58;15.05;;;19.10;99.90;;;;;;5051181;28;20210;-65
2023/05/09 11:22:21;;;;;;;21.05;16.02;;;19.20;99.90;;;;;;5051870;28;20041;-65
2023/05/09 11:24:49;;;;;;;20.10;15.38;;;19.20;99.90;;;;;;5034014;28;20487;-65
2023/05/09 11:27:19;;;;;;;19.00;14.10;;;19.20;99.90;;;;;;5033541;28;20060;-65
2023/05/09 11:29:49;;;;;;;19.50;13.77;;;19.20;99.90;;;;;;5033980;28;20036;-64
2023/05/09 11:32:15;;;;;;;16.15;13.35;;;19.20;99.90;;;;;;5051819;28;20053;-64
2023/05/09 11:34:44;;;;;;;17.42;13.82;;;19.30;99.90;;;;;;5050545;28;20502;-65
2023/05/09 11:37:15;;;;;;;17.80;13.75;;;19.50;99.90;;;;;;5051363;28;20037;-65
2023/05/09 11:39:58;;;;;;;22.65;14.02;;;19.40;99.90;;;;;;5051408;28;20517;-64
2023/05/09 11:42:26;;;;;;;16.80;13.75;;;19.30;99.90;;;;;;5051809;28;20036;-65
2023/05/09 11:44:52;;;;;;;18.45;14.77;;;19.60;99.90;;;;;;5040817;28;20174;-65
2023/05/09 11:47:19;;;;;;;17.00;13.68;;;19.60;99.90;;;;;;5054604;28;20068;-65
2023/05/09 11:49:45;;;;;;;17.13;14.43;;;19.50;99.90;;;;;;5053576;28;20045;-64
2023/05/09 11:52:11;;;;;;;19.63;14.45;;;19.30;99.90;;;;;;5050307;28;20033;-65
2023/05/09 11:54:39;;;;;;;18.92;14.52;;;19.20;99.90;;;;;;5044338;28;20377;-65
2023/05/09 11:57:06;;;;;;;20.90;14.57;;;19.10;99.90;;;;;;5051031;28;20036;-63
2023/05/09 11:59:33;;;;;;;17.00;14.55;;;19.10;99.90;;;;;;5037071;28;20124;-65
2023/05/09 12:02:06;;;;;;;20.10;15.55;;;19.10;99.90;;;;;;5050191;28;20459;-65
2023/05/09 12:04:32;;;;;;;21.15;15.55;;;19.00;99.90;;;;;;5033419;28;20049;-62
2023/05/09 12:06:59;;;;;;;25.67;16.92;;;19.00;99.90;;;;;;5032041;28;20048;-65
2023/05/09 12:09:29;;;;;;;22.50;17.30;;;18.90;99.90;;;;;;5032775;28;20044;-65
2023/05/09 12:11:54;;;;;;;23.42;17.88;;;18.90;99.90;;;;;;5033076;28;20041;-65
2023/05/09 12:14:31;;;;;;;24.95;19.23;;;18.70;99.90;;;;;;5049716;28;20044;-64
2023/05/09 12:16:57;;;;;;;23.60;19.02;;;18.70;99.90;;;;;;5050138;28;20065;-65
2023/05/09 12:19:24;;;;;;;25.02;19.10;;;18.50;99.90;;;;;;5026681;28;20096;-65
2023/05/09 12:21:57;;;;;;;21.80;18.38;;;18.50;99.90;;;;;;5049479;28;20502;-65
2023/05/09 12:24:25;;;;;;;24.40;19.23;;;18.40;99.90;;;;;;5046397;28;20561;-65
2023/05/09 12:26:51;;;;;;;24.35;18.63;;;18.30;99.90;;;;;;5031242;28;20539;-65